Time;durP1;ratioP1;P1;durP2;ratioP2;P2;SDS_P1;SDS_P2;PMS_P1;PMS_P2;Temp;Humidity;BMP_temperature;BMP_pressure;BME280_temperature;BME280_humidity;BME280_pressure;Samples;Min_cycle;Max_cycle;Signal;HPM_P1;HPM_P2
2021/09/07 00:01:33;;;;;;;10.32;8.82;;;19.00;98.10;;;;;;5113737;28;20246;-38
2021/09/07 00:03:59;;;;;;;10.52;8.52;;;19.00;98.10;;;;;;5112796;28;20020;-36
2021/09/07 00:06:27;;;;;;;10.32;8.15;;;19.10;98.10;;;;;;5113133;28;20386;-39
2021/09/07 00:08:53;;;;;;;11.23;8.60;;;19.10;98.10;;;;;;5112649;28;20016;-41
2021/09/07 00:11:18;;;;;;;9.10;7.70;;;19.10;98.00;;;;;;5113497;28;20064;-37
2021/09/07 00:13:44;;;;;;;10.48;8.55;;;19.20;98.00;;;;;;5112441;28;20097;-37
2021/09/07 00:16:10;;;;;;;9.45;7.32;;;19.20;98.00;;;;;;5102514;28;20050;-39
2021/09/07 00:18:36;;;;;;;9.40;7.57;;;19.20;98.00;;;;;;5109359;28;20008;-39
2021/09/07 00:21:02;;;;;;;10.80;7.88;;;19.20;98.00;;;;;;5112557;28;20023;-38
2021/09/07 00:23:27;;;;;;;10.10;7.60;;;19.30;97.90;;;;;;5113278;28;20459;-36
2021/09/07 00:25:53;;;;;;;11.13;8.00;;;19.30;97.90;;;;;;5112609;28;20528;-39
2021/09/07 00:28:18;;;;;;;11.40;7.82;;;19.30;97.90;;;;;;5112175;28;20016;-39
2021/09/07 00:30:47;;;;;;;10.45;8.93;;;19.30;97.80;;;;;;5113111;28;20458;-34
2021/09/07 00:33:12;;;;;;;10.32;8.20;;;19.30;97.80;;;;;;5112223;28;20018;-36
2021/09/07 00:35:38;;;;;;;9.82;7.88;;;19.40;97.90;;;;;;5112629;28;20351;-37
2021/09/07 00:38:04;;;;;;;8.52;7.60;;;19.40;97.80;;;;;;5112463;28;20016;-39
2021/09/07 00:40:30;;;;;;;9.45;8.02;;;19.40;97.80;;;;;;5112350;28;20114;-40
2021/09/07 00:42:55;;;;;;;11.98;8.45;;;19.40;97.80;;;;;;5112531;28;20103;-40
2021/09/07 00:45:21;;;;;;;9.98;8.18;;;19.40;97.90;;;;;;5112844;28;20019;-38
2021/09/07 00:47:46;;;;;;;9.13;7.63;;;19.40;97.90;;;;;;5111525;28;20055;-34
2021/09/07 00:50:13;;;;;;;9.48;7.93;;;19.40;97.90;;;;;;5112696;28;20012;-40
2021/09/07 00:52:41;;;;;;;9.52;8.13;;;19.40;98.00;;;;;;5112790;28;20015;-40
2021/09/07 00:55:11;;;;;;;9.52;7.97;;;19.40;98.00;;;;;;5111604;28;20123;-37
2021/09/07 00:57:37;;;;;;;9.10;7.95;;;19.40;98.00;;;;;;5113062;28;20039;-40
2021/09/07 01:00:07;;;;;;;9.00;8.05;;;19.40;98.00;;;;;;5112195;28;20027;-39
2021/09/07 01:02:32;;;;;;;12.52;8.50;;;19.40;98.00;;;;;;5112113;28;20104;-39
2021/09/07 01:04:58;;;;;;;11.20;7.65;;;19.40;98.00;;;;;;5111621;28;20107;-39
2021/09/07 01:07:24;;;;;;;10.18;8.15;;;19.40;98.00;;;;;;5112414;28;20060;-38
2021/09/07 01:09:50;;;;;;;10.88;8.40;;;19.40;98.00;;;;;;5110829;28;20482;-37
2021/09/07 01:12:15;;;;;;;10.18;8.15;;;19.40;98.00;;;;;;5112745;28;20548;-37
2021/09/07 01:14:42;;;;;;;10.45;7.93;;;19.40;98.00;;;;;;5111865;28;20023;-37
2021/09/07 01:17:13;;;;;;;9.43;8.05;;;19.40;98.00;;;;;;5111450;28;20474;-40
2021/09/07 01:19:39;;;;;;;11.80;8.35;;;19.40;98.00;;;;;;5111446;28;20023;-40
2021/09/07 01:22:05;;;;;;;11.05;8.18;;;19.40;98.10;;;;;;5111904;28;20030;-39
2021/09/07 01:24:30;;;;;;;9.52;8.15;;;19.40;98.10;;;;;;5112097;28;20012;-36
2021/09/07 01:26:56;;;;;;;11.70;8.43;;;19.30;98.10;;;;;;5111423;28;20028;-34
2021/09/07 01:29:22;;;;;;;12.35;9.20;;;19.30;98.10;;;;;;5110704;28;20024;-39
2021/09/07 01:31:48;;;;;;;10.30;8.32;;;19.30;98.10;;;;;;5111500;28;20027;-39
2021/09/07 01:34:22;;;;;;;11.55;9.60;;;19.30;98.00;;;;;;5111781;28;20479;-38
2021/09/07 01:36:51;;;;;;;13.70;8.80;;;19.30;98.00;;;;;;5110284;28;20110;-38
2021/09/07 01:39:18;;;;;;;14.63;9.77;;;19.20;97.90;;;;;;5112281;28;20027;-34
2021/09/07 01:41:44;;;;;;;11.98;9.70;;;19.20;97.90;;;;;;5111098;28;20039;-40
2021/09/07 01:44:10;;;;;;;12.02;9.32;;;19.20;97.80;;;;;;5110192;28;20031;-39
2021/09/07 01:46:36;;;;;;;10.35;9.10;;;19.10;97.80;;;;;;5111407;28;20024;-40
2021/09/07 01:49:09;;;;;;;11.98;9.63;;;19.10;97.90;;;;;;5111559;28;20116;-39
2021/09/07 01:51:39;;;;;;;10.85;8.77;;;19.10;97.90;;;;;;5109531;28;20084;-39
2021/09/07 01:54:06;;;;;;;10.57;9.18;;;19.00;98.00;;;;;;5111376;28;20031;-39
2021/09/07 01:56:31;;;;;;;14.05;9.52;;;19.00;98.00;;;;;;5111606;28;20114;-39
2021/09/07 01:58:57;;;;;;;14.40;9.50;;;18.90;98.10;;;;;;5110883;28;20107;-39
2021/09/07 02:01:23;;;;;;;11.40;9.25;;;18.90;98.10;;;;;;5110878;28;20518;-37
2021/09/07 02:03:48;;;;;;;11.90;9.32;;;18.90;98.10;;;;;;5111342;28;20023;-38
2021/09/07 02:06:40;;;;;;;12.40;9.52;;;18.90;98.20;;;;;;5108643;28;20035;-37
2021/09/07 02:09:09;;;;;;;11.48;9.00;;;18.90;98.30;;;;;;5105906;28;20097;-37
2021/09/07 02:11:34;;;;;;;9.75;7.85;;;18.90;98.50;;;;;;5109051;28;20131;-40
2021/09/07 02:14:00;;;;;;;12.23;9.27;;;19.00;98.50;;;;;;5110585;28;20434;-39
2021/09/07 02:16:26;;;;;;;12.63;8.93;;;19.00;98.30;;;;;;5111113;28;20561;-37
2021/09/07 02:18:54;;;;;;;12.82;9.55;;;19.00;98.40;;;;;;5109807;28;20354;-36
2021/09/07 02:21:20;;;;;;;10.20;8.30;;;19.00;98.40;;;;;;5110436;28;20016;-37
2021/09/07 02:23:45;;;;;;;10.30;9.00;;;19.00;98.40;;;;;;5110211;28;20027;-37
2021/09/07 02:26:11;;;;;;;12.27;9.43;;;19.00;98.40;;;;;;5110377;28;20026;-39
2021/09/07 02:28:36;;;;;;;12.40;10.00;;;19.10;98.50;;;;;;5111312;28;20475;-38
2021/09/07 02:31:02;;;;;;;12.98;9.73;;;19.10;98.50;;;;;;5110725;28;20073;-37
2021/09/07 02:33:30;;;;;;;12.23;9.00;;;19.10;98.50;;;;;;5109847;28;20386;-34
2021/09/07 02:35:56;;;;;;;13.25;9.90;;;19.10;98.50;;;;;;5110796;28;20042;-39
2021/09/07 02:38:21;;;;;;;12.98;9.68;;;19.10;98.50;;;;;;5109495;28;20122;-37
2021/09/07 02:40:47;;;;;;;11.50;9.07;;;19.00;98.50;;;;;;5108445;28;20065;-36
2021/09/07 02:43:15;;;;;;;11.27;9.13;;;19.00;98.50;;;;;;5110579;28;20027;-34
2021/09/07 02:45:41;;;;;;;12.10;9.10;;;19.00;98.60;;;;;;5109249;28;20114;-34
2021/09/07 02:48:12;;;;;;;12.15;9.80;;;19.00;98.60;;;;;;5109901;28;20102;-38
2021/09/07 02:50:41;;;;;;;11.37;9.60;;;19.00;98.60;;;;;;5111006;28;20030;-38
2021/09/07 02:53:13;;;;;;;11.00;9.15;;;19.00;98.70;;;;;;5109491;28;20016;-38
2021/09/07 02:55:41;;;;;;;11.80;9.40;;;19.00;98.70;;;;;;5109918;28;20520;-40
2021/09/07 02:58:09;;;;;;;12.65;9.05;;;19.00;98.70;;;;;;5110240;28;20011;-40
2021/09/07 03:00:34;;;;;;;12.85;9.52;;;19.00;98.60;;;;;;5110626;28;20073;-36
2021/09/07 03:03:00;;;;;;;11.85;8.82;;;19.00;98.60;;;;;;5109459;28;20023;-39
2021/09/07 03:05:25;;;;;;;13.30;9.98;;;19.00;98.50;;;;;;5110386;28;20064;-35
2021/09/07 03:07:54;;;;;;;12.27;10.15;;;19.00;98.50;;;;;;5108987;28;20110;-37
2021/09/07 03:10:19;;;;;;;11.80;9.65;;;19.00;98.60;;;;;;5110149;28;20012;-32
2021/09/07 03:12:45;;;;;;;13.60;8.82;;;19.00;98.60;;;;;;5109842;28;20054;-39
2021/09/07 03:15:11;;;;;;;10.65;9.00;;;19.00;98.60;;;;;;5109753;28;20447;-38
2021/09/07 03:17:36;;;;;;;12.88;9.52;;;19.00;98.60;;;;;;5109289;28;20036;-35
2021/09/07 03:20:02;;;;;;;13.10;10.30;;;18.90;98.50;;;;;;5109805;28;20086;-38
2021/09/07 03:22:31;;;;;;;12.70;9.98;;;18.90;98.50;;;;;;5110720;28;20169;-36
2021/09/07 03:24:57;;;;;;;13.25;10.13;;;18.90;98.50;;;;;;5113662;28;20016;-39
2021/09/07 03:27:23;;;;;;;14.75;9.43;;;18.90;98.50;;;;;;5114535;28;20467;-37
2021/09/07 03:29:49;;;;;;;12.98;10.20;;;18.90;98.50;;;;;;5113129;28;20122;-36
2021/09/07 03:32:14;;;;;;;13.95;10.38;;;18.90;98.50;;;;;;5113202;28;20028;-37
2021/09/07 03:34:40;;;;;;;12.20;8.93;;;18.90;98.60;;;;;;5113904;28;20383;-36
2021/09/07 03:37:05;;;;;;;14.82;10.00;;;18.90;98.60;;;;;;5113554;28;20023;-37
2021/09/07 03:39:31;;;;;;;11.75;9.13;;;18.90;98.70;;;;;;5095438;28;20463;-38
2021/09/07 03:41:59;;;;;;;11.55;9.95;;;18.90;98.70;;;;;;5113129;28;20478;-36
2021/09/07 03:44:25;;;;;;;12.68;9.93;;;18.80;98.70;;;;;;5113802;28;20090;-38
2021/09/07 03:46:50;;;;;;;13.80;10.45;;;18.80;98.80;;;;;;5113476;28;20110;-39
2021/09/07 03:49:16;;;;;;;14.52;10.60;;;18.80;98.80;;;;;;5113798;28;20011;-37
2021/09/07 03:51:41;;;;;;;14.55;10.68;;;18.80;98.90;;;;;;5113189;28;20104;-37
2021/09/07 03:54:07;;;;;;;13.93;10.82;;;18.70;99.00;;;;;;5112882;28;20103;-40
2021/09/07 03:56:32;;;;;;;14.60;10.57;;;18.70;99.00;;;;;;5113906;28;20140;-37
2021/09/07 03:58:58;;;;;;;14.63;10.57;;;18.60;99.00;;;;;;5112797;28;20019;-37
2021/09/07 04:01:24;;;;;;;14.13;10.70;;;18.50;99.10;;;;;;5113507;28;20024;-38
2021/09/07 04:03:49;;;;;;;14.13;10.88;;;18.50;99.10;;;;;;5113473;28;20488;-39
2021/09/07 04:06:15;;;;;;;13.95;10.50;;;18.40;99.20;;;;;;5112481;28;20030;-40
2021/09/07 04:08:40;;;;;;;14.95;10.93;;;18.40;99.30;;;;;;5113110;28;20024;-37
2021/09/07 04:11:08;;;;;;;15.18;11.43;;;18.30;99.50;;;;;;5112843;28;20027;-38
2021/09/07 04:13:34;;;;;;;14.68;10.88;;;18.30;99.60;;;;;;5113213;28;20039;-39
2021/09/07 04:15:59;;;;;;;14.85;11.20;;;18.20;99.70;;;;;;5109272;28;20089;-35
2021/09/07 04:18:25;;;;;;;13.60;10.75;;;18.20;99.80;;;;;;5112691;28;20146;-40
2021/09/07 04:20:50;;;;;;;14.70;12.02;;;18.10;99.90;;;;;;5111826;28;20031;-39
2021/09/07 04:23:16;;;;;;;16.00;11.05;;;18.10;99.90;;;;;;5113089;28;20024;-37
2021/09/07 04:25:43;;;;;;;14.27;11.90;;;18.00;99.90;;;;;;5112056;28;20039;-38
2021/09/07 04:28:08;;;;;;;15.13;11.93;;;18.00;99.90;;;;;;5113125;28;20526;-34
2021/09/07 04:30:34;;;;;;;14.10;10.80;;;17.90;99.90;;;;;;5112925;28;20111;-37
2021/09/07 04:32:59;;;;;;;13.95;10.50;;;17.90;99.90;;;;;;5111748;28;20015;-37
2021/09/07 04:35:25;;;;;;;15.50;11.38;;;17.80;99.90;;;;;;5111388;28;20135;-37
2021/09/07 04:37:50;;;;;;;16.63;11.40;;;17.80;99.90;;;;;;5112290;28;20024;-34
2021/09/07 04:40:16;;;;;;;16.05;12.00;;;17.80;99.90;;;;;;5112838;28;20455;-40
2021/09/07 04:42:42;;;;;;;16.42;12.57;;;17.80;99.90;;;;;;5112410;28;20026;-39
2021/09/07 04:45:08;;;;;;;17.65;11.65;;;17.70;99.90;;;;;;5112319;28;20019;-40
2021/09/07 04:47:33;;;;;;;16.10;11.70;;;17.70;99.90;;;;;;5112252;28;20493;-38
2021/09/07 04:49:59;;;;;;;14.95;11.57;;;17.70;99.90;;;;;;5111454;28;20417;-40
2021/09/07 04:52:24;;;;;;;15.75;11.50;;;17.60;99.90;;;;;;5112177;28;20492;-38
2021/09/07 04:54:50;;;;;;;16.13;12.00;;;17.60;99.90;;;;;;5111581;28;20054;-39
2021/09/07 04:57:15;;;;;;;16.27;11.45;;;17.60;99.90;;;;;;5111864;28;20382;-39
2021/09/07 04:59:47;;;;;;;17.23;12.00;;;17.50;99.90;;;;;;5112311;28;20024;-36
2021/09/07 05:02:13;;;;;;;15.07;12.52;;;17.50;99.90;;;;;;5112146;28;20054;-34
2021/09/07 05:04:38;;;;;;;17.70;12.85;;;17.50;99.90;;;;;;5112113;28;20044;-35
2021/09/07 05:07:24;;;;;;;16.23;11.85;;;17.50;99.90;;;;;;5111938;28;20018;-39
2021/09/07 05:09:50;;;;;;;18.83;12.45;;;17.50;99.90;;;;;;5111449;28;20475;-32
2021/09/07 05:12:15;;;;;;;18.27;12.85;;;17.50;99.90;;;;;;5111834;28;20051;-38
2021/09/07 05:14:41;;;;;;;17.63;13.35;;;17.50;99.90;;;;;;5111924;28;20554;-34
2021/09/07 05:17:07;;;;;;;21.30;13.05;;;17.50;99.90;;;;;;5111695;28;20378;-34
2021/09/07 05:19:32;;;;;;;17.02;12.50;;;17.60;99.90;;;;;;5112225;28;20516;-34
2021/09/07 05:21:58;;;;;;;19.00;13.48;;;17.60;99.90;;;;;;5111152;28;20351;-37
2021/09/07 05:24:23;;;;;;;19.00;13.82;;;17.60;99.90;;;;;;5112031;28;20058;-38
2021/09/07 05:26:49;;;;;;;18.52;12.77;;;17.60;99.90;;;;;;5110252;28;20040;-38
2021/09/07 05:29:14;;;;;;;20.50;13.70;;;17.60;99.90;;;;;;5111412;28;20027;-33
2021/09/07 05:31:43;;;;;;;17.63;13.25;;;17.60;99.90;;;;;;5111342;28;20490;-36
2021/09/07 05:34:11;;;;;;;17.77;12.43;;;17.60;99.90;;;;;;5110935;28;20074;-32
2021/09/07 05:36:37;;;;;;;18.50;13.65;;;17.60;99.90;;;;;;5070687;28;20039;-37
2021/09/07 05:39:02;;;;;;;15.07;11.95;;;17.60;99.90;;;;;;5099518;28;20024;-35
2021/09/07 05:41:28;;;;;;;22.77;12.93;;;17.60;99.90;;;;;;5111448;28;20024;-43
2021/09/07 05:43:53;;;;;;;19.35;13.73;;;17.50;99.90;;;;;;5110487;28;20023;-41
2021/09/07 05:46:19;;;;;;;19.27;12.98;;;17.50;99.90;;;;;;5110652;28;20027;-37
2021/09/07 05:48:46;;;;;;;19.98;13.70;;;17.50;99.90;;;;;;5106675;28;20012;-39
2021/09/07 05:51:14;;;;;;;19.80;13.50;;;17.50;99.90;;;;;;5111475;28;20032;-37
2021/09/07 05:53:46;;;;;;;20.75;13.68;;;17.50;99.90;;;;;;5089755;28;20028;-40
2021/09/07 05:56:11;;;;;;;18.88;13.13;;;17.50;99.90;;;;;;5089976;28;20035;-35
2021/09/07 05:58:38;;;;;;;18.55;13.40;;;17.50;99.90;;;;;;5092755;28;20020;-39
2021/09/07 06:01:06;;;;;;;20.33;14.27;;;17.50;99.90;;;;;;5108408;28;20490;-37
2021/09/07 06:03:32;;;;;;;19.63;13.77;;;17.50;99.90;;;;;;5110304;28;20073;-37
2021/09/07 06:05:57;;;;;;;19.83;13.40;;;17.50;99.90;;;;;;5109793;28;20511;-37
2021/09/07 06:08:23;;;;;;;18.73;13.77;;;17.60;99.90;;;;;;5109540;28;20469;-36
2021/09/07 06:10:49;;;;;;;17.48;12.95;;;17.60;99.90;;;;;;5108929;28;20095;-39
2021/09/07 06:13:14;;;;;;;17.25;13.00;;;17.70;99.90;;;;;;5109981;28;20035;-36
2021/09/07 06:15:41;;;;;;;18.30;13.93;;;17.70;99.90;;;;;;5109614;28;20116;-36
2021/09/07 06:18:07;;;;;;;18.83;13.50;;;17.80;99.90;;;;;;5109211;28;20020;-35
2021/09/07 06:20:33;;;;;;;21.45;15.25;;;17.90;99.90;;;;;;5110360;28;20033;-38
2021/09/07 06:22:59;;;;;;;21.00;14.63;;;18.00;99.90;;;;;;5109901;28;20034;-37
2021/09/07 06:25:24;;;;;;;21.73;15.75;;;18.10;99.90;;;;;;5110622;28;20073;-38
2021/09/07 06:27:50;;;;;;;21.10;14.50;;;18.30;99.90;;;;;;5100626;28;20056;-35
2021/09/07 06:30:16;;;;;;;19.67;14.82;;;18.40;99.90;;;;;;5095296;28;20107;-36
2021/09/07 06:32:41;;;;;;;17.40;13.88;;;18.50;99.90;;;;;;5110364;28;20035;-39
2021/09/07 06:35:08;;;;;;;19.63;14.63;;;18.60;99.90;;;;;;5110686;28;20542;-38
2021/09/07 06:37:34;;;;;;;18.40;14.02;;;18.70;99.90;;;;;;5110821;28;20035;-37
2021/09/07 06:39:59;;;;;;;18.38;13.27;;;18.80;99.90;;;;;;5109916;28;20107;-36
2021/09/07 06:42:28;;;;;;;19.63;14.98;;;18.90;99.80;;;;;;5110313;28;20398;-36
2021/09/07 06:44:54;;;;;;;17.58;13.43;;;19.00;99.80;;;;;;5109986;28;20023;-38
2021/09/07 06:47:19;;;;;;;18.55;13.55;;;19.00;99.70;;;;;;5108795;28;20111;-38
2021/09/07 06:49:48;;;;;;;17.98;13.73;;;19.10;99.60;;;;;;5091280;28;20478;-38
2021/09/07 06:52:13;;;;;;;16.00;12.02;;;19.20;99.60;;;;;;5110373;28;20016;-36
2021/09/07 06:54:39;;;;;;;14.82;12.05;;;19.20;99.60;;;;;;5109847;28;20031;-40
2021/09/07 06:57:04;;;;;;;14.95;12.27;;;19.30;99.60;;;;;;5109138;28;20057;-39
2021/09/07 06:59:30;;;;;;;15.50;12.40;;;19.40;99.70;;;;;;5082212;28;20539;-36
2021/09/07 07:01:55;;;;;;;13.93;11.60;;;19.50;99.70;;;;;;5100166;28;20044;-39
2021/09/07 07:04:27;;;;;;;15.13;11.15;;;19.60;99.80;;;;;;5110603;28;20107;-36
2021/09/07 07:06:53;;;;;;;14.77;11.73;;;19.70;99.70;;;;;;5109452;28;20015;-39
2021/09/07 07:09:18;;;;;;;15.55;11.88;;;19.70;99.70;;;;;;5110258;28;20016;-40
2021/09/07 07:11:43;;;;;;;17.00;12.80;;;19.80;99.80;;;;;;5108720;28;20050;-36
2021/09/07 07:14:09;;;;;;;17.80;12.57;;;19.80;99.80;;;;;;5104962;28;20439;-39
2021/09/07 07:16:34;;;;;;;18.52;14.55;;;19.80;99.80;;;;;;5103049;28;20180;-37
2021/09/07 07:19:00;;;;;;;18.20;13.35;;;19.90;99.90;;;;;;5110383;28;20153;-36
2021/09/07 07:21:28;;;;;;;18.38;13.68;;;20.00;99.80;;;;;;5106381;28;20496;-39
2021/09/07 07:23:54;;;;;;;17.05;13.57;;;20.00;99.80;;;;;;5098620;28;20026;-39
2021/09/07 07:26:19;;;;;;;18.23;14.20;;;20.20;99.80;;;;;;5110361;28;20015;-39
2021/09/07 07:28:45;;;;;;;20.10;14.68;;;20.20;99.70;;;;;;5109264;28;20451;-38
2021/09/07 07:31:10;;;;;;;18.77;14.15;;;20.30;99.60;;;;;;5110034;28;20073;-35
2021/09/07 07:33:36;;;;;;;19.00;14.63;;;20.40;99.60;;;;;;5110407;28;20072;-39
2021/09/07 07:36:02;;;;;;;18.40;13.88;;;20.50;99.50;;;;;;5109157;28;20144;-40
2021/09/07 07:38:30;;;;;;;21.00;15.05;;;20.50;99.40;;;;;;5109570;28;20452;-40
2021/09/07 07:40:56;;;;;;;19.52;14.93;;;20.60;99.30;;;;;;5109935;28;20027;-40
2021/09/07 07:43:25;;;;;;;18.98;14.15;;;20.60;99.20;;;;;;5109798;28;20080;-35
2021/09/07 07:45:51;;;;;;;18.05;13.68;;;20.70;99.10;;;;;;5108964;28;20107;-39
2021/09/07 07:48:17;;;;;;;20.30;13.93;;;20.80;99.10;;;;;;5103227;28;20028;-38
2021/09/07 07:50:42;;;;;;;18.70;13.93;;;20.80;99.00;;;;;;5109282;28;20103;-39
2021/09/07 07:53:08;;;;;;;17.23;13.73;;;20.90;98.90;;;;;;5102223;28;20016;-39
2021/09/07 07:55:33;;;;;;;22.15;15.98;;;20.90;98.90;;;;;;5110388;28;20482;-39
2021/09/07 07:57:59;;;;;;;19.33;15.07;;;21.00;98.80;;;;;;5108864;28;20028;-42
2021/09/07 08:00:25;;;;;;;16.85;13.77;;;21.00;99.00;;;;;;5109562;28;20016;-40
2021/09/07 08:02:50;;;;;;;21.20;14.85;;;21.10;98.80;;;;;;5109807;28;20371;-41
2021/09/07 08:05:16;;;;;;;19.88;14.93;;;21.20;98.70;;;;;;5109661;28;20020;-40
2021/09/07 08:07:41;;;;;;;18.42;13.68;;;21.30;98.60;;;;;;5109615;28;20028;-43
2021/09/07 08:10:08;;;;;;;20.10;14.50;;;21.30;98.60;;;;;;5112685;28;20488;-41
2021/09/07 08:12:33;;;;;;;19.50;14.73;;;21.40;98.50;;;;;;5112457;28;20067;-40
2021/09/07 08:14:59;;;;;;;19.70;15.70;;;21.40;98.60;;;;;;5108574;28;20474;-43
2021/09/07 08:17:24;;;;;;;19.15;14.07;;;21.50;98.40;;;;;;5093389;28;20074;-38
2021/09/07 08:19:50;;;;;;;15.45;12.75;;;21.60;98.30;;;;;;5108423;28;20019;-40
2021/09/07 08:22:16;;;;;;;19.02;14.07;;;21.70;98.20;;;;;;5113326;28;20363;-38
2021/09/07 08:24:42;;;;;;;16.75;13.50;;;21.80;98.10;;;;;;5112080;28;20034;-41
2021/09/07 08:27:08;;;;;;;16.45;13.13;;;21.90;98.00;;;;;;5113138;28;20023;-40
2021/09/07 08:29:33;;;;;;;18.35;14.25;;;21.90;98.00;;;;;;5113050;28;20022;-43
2021/09/07 08:31:59;;;;;;;20.55;14.88;;;22.00;98.00;;;;;;5112780;28;20030;-40
2021/09/07 08:34:24;;;;;;;20.58;15.00;;;22.10;98.00;;;;;;5112809;28;20081;-39
2021/09/07 08:36:50;;;;;;;20.38;14.52;;;22.10;97.90;;;;;;5112142;28;20497;-43
2021/09/07 08:39:16;;;;;;;18.23;12.90;;;22.20;97.80;;;;;;5112248;28;20543;-45
2021/09/07 08:41:42;;;;;;;17.70;13.57;;;22.30;97.80;;;;;;5112897;28;20030;-43
2021/09/07 08:44:08;;;;;;;14.18;10.90;;;22.40;97.70;;;;;;5112947;28;20031;-42
2021/09/07 08:46:33;;;;;;;20.33;12.98;;;22.40;97.60;;;;;;5112073;28;20031;-40
2021/09/07 08:49:00;;;;;;;11.40;10.20;;;22.50;97.50;;;;;;5110722;28;20028;-40
2021/09/07 08:51:25;;;;;;;14.20;12.10;;;22.60;97.40;;;;;;5112820;28;20042;-40
2021/09/07 08:53:54;;;;;;;16.13;12.50;;;22.60;97.20;;;;;;5082640;28;20484;-37
2021/09/07 08:56:20;;;;;;;15.45;12.93;;;22.70;97.20;;;;;;5091312;28;20043;-40
2021/09/07 08:58:46;;;;;;;14.10;10.18;;;22.70;97.10;;;;;;5082907;28;20024;-38
2021/09/07 09:01:16;;;;;;;15.27;11.90;;;22.80;97.10;;;;;;5087758;28;20032;-44
2021/09/07 09:03:43;;;;;;;14.18;11.40;;;22.80;97.00;;;;;;5091934;28;20031;-37
2021/09/07 09:06:12;;;;;;;14.82;12.45;;;22.80;97.00;;;;;;5107188;28;20379;-42
2021/09/07 09:08:38;;;;;;;16.92;11.93;;;22.80;96.90;;;;;;5111512;28;20012;-43
2021/09/07 09:11:10;;;;;;;15.38;13.10;;;22.70;96.80;;;;;;5112136;28;20038;-36
2021/09/07 09:13:47;;;;;;;16.48;12.52;;;22.70;96.80;;;;;;5111091;28;20054;-41
2021/09/07 09:16:14;;;;;;;13.30;10.82;;;22.60;96.80;;;;;;5112198;28;20050;-42
2021/09/07 09:18:46;;;;;;;12.68;10.05;;;22.50;96.80;;;;;;5112135;28;20092;-41
2021/09/07 09:21:23;;;;;;;15.65;12.00;;;22.50;96.80;;;;;;5111370;28;20015;-42
2021/09/07 09:24:11;;;;;;;13.88;11.15;;;22.40;96.80;;;;;;5111238;28;20058;-39
2021/09/07 09:26:55;;;;;;;11.15;9.48;;;22.40;96.80;;;;;;5111450;28;20375;-37
2021/09/07 09:29:23;;;;;;;15.05;11.63;;;22.40;96.80;;;;;;5111221;28;20023;-40
2021/09/07 09:32:05;;;;;;;15.93;10.38;;;22.30;96.80;;;;;;5108898;28;20279;-40
2021/09/07 09:34:32;;;;;;;13.25;10.13;;;22.30;96.80;;;;;;5109933;28;20059;-38
2021/09/07 09:37:01;;;;;;;10.57;9.18;;;22.30;96.90;;;;;;5108382;28;20055;-41
2021/09/07 09:39:35;;;;;;;14.30;11.18;;;22.20;96.90;;;;;;5110425;28;20024;-37
2021/09/07 09:42:01;;;;;;;13.82;11.18;;;22.20;96.80;;;;;;5108295;28;20027;-37
2021/09/07 09:44:27;;;;;;;11.48;10.00;;;22.20;96.80;;;;;;5110375;28;20077;-42
2021/09/07 09:46:53;;;;;;;12.55;9.77;;;22.20;96.80;;;;;;5098718;28;20066;-38
2021/09/07 09:49:21;;;;;;;14.30;11.40;;;22.20;96.80;;;;;;5089774;28;20063;-40
2021/09/07 09:51:48;;;;;;;14.43;11.30;;;22.20;96.80;;;;;;5084796;28;20016;-41
2021/09/07 09:54:14;;;;;;;13.82;10.10;;;22.30;96.70;;;;;;5084330;28;20036;-40
2021/09/07 09:56:40;;;;;;;15.95;11.82;;;22.30;96.70;;;;;;5095353;28;20418;-42
2021/09/07 09:59:09;;;;;;;15.98;12.85;;;22.30;96.60;;;;;;5092568;28;20028;-38
2021/09/07 10:01:37;;;;;;;16.30;11.93;;;22.40;96.50;;;;;;5077344;28;20486;-42
2021/09/07 10:04:04;;;;;;;12.63;9.68;;;22.40;96.40;;;;;;5110841;28;20026;-42
2021/09/07 10:06:30;;;;;;;13.20;10.80;;;22.40;96.50;;;;;;5111220;28;20447;-42
2021/09/07 10:08:56;;;;;;;13.95;11.75;;;22.50;96.40;;;;;;5110484;28;20024;-40
2021/09/07 10:11:26;;;;;;;14.60;10.77;;;22.50;96.30;;;;;;5110949;28;20072;-40
2021/09/07 10:13:58;;;;;;;15.82;13.07;;;22.50;96.30;;;;;;5109959;28;20509;-41
2021/09/07 10:16:32;;;;;;;;;;;22.60;96.50;;;;;;5111796;28;20111;-41
2021/09/07 10:19:25;;;;;;;11.80;9.48;;;22.60;96.20;;;;;;5109945;28;19926;-42
2021/09/07 10:24:53;;;;;;;17.63;13.80;;;22.70;95.90;;;;;;5111078;28;20042;-39
2021/09/07 10:27:18;;;;;;;14.57;11.85;;;22.90;95.90;;;;;;5110893;28;20114;-39
2021/09/07 10:29:45;;;;;;;16.13;12.38;;;22.90;95.80;;;;;;5110822;28;20115;-40
2021/09/07 10:32:30;;;;;;;17.02;13.38;;;23.00;95.70;;;;;;5108809;28;20035;-38
2021/09/07 10:35:11;;;;;;;19.42;13.90;;;23.10;95.70;;;;;;5103014;28;20088;-39
2021/09/07 10:38:07;;;;;;;14.95;12.45;;;23.10;95.30;;;;;;5108363;28;20534;-36
2021/09/07 10:40:48;;;;;;;12.68;10.77;;;23.10;95.30;;;;;;5088582;28;20015;-40
2021/09/07 10:44:09;;;;;;;14.73;11.75;;;23.20;95.30;;;;;;5108606;28;20012;-39
2021/09/07 10:47:09;;;;;;;11.73;10.00;;;23.30;95.10;;;;;;5027661;28;20032;-35
2021/09/07 10:49:36;;;;;;;12.02;10.23;;;23.40;95.10;;;;;;5101012;28;20035;-35
2021/09/07 10:52:04;;;;;;;10.55;8.88;;;23.30;95.00;;;;;;5109121;28;20024;-40
2021/09/07 10:54:31;;;;;;;15.40;11.05;;;23.40;95.00;;;;;;5110738;28;20020;-39
2021/09/07 10:56:59;;;;;;;13.32;10.18;;;23.40;94.90;;;;;;5109667;28;20027;-38
2021/09/07 10:59:48;;;;;;;13.35;10.68;;;23.40;94.90;;;;;;5109920;28;20030;-37
2021/09/07 11:02:36;;;;;;;13.25;10.35;;;23.40;94.60;;;;;;5110027;28;20040;-36
2021/09/07 11:05:05;;;;;;;10.98;9.38;;;23.40;94.50;;;;;;5110293;28;20015;-39
2021/09/07 11:07:37;;;;;;;11.82;10.10;;;23.40;94.10;;;;;;5109250;28;20020;-38
2021/09/07 11:10:03;;;;;;;10.15;8.13;;;23.60;94.00;;;;;;5109751;28;20110;-39
2021/09/07 11:12:33;;;;;;;11.18;9.32;;;23.60;94.00;;;;;;5110095;28;20097;-39
2021/09/07 11:15:09;;;;;;;10.45;7.68;;;23.70;93.90;;;;;;5108590;28;20038;-37
2021/09/07 11:17:47;;;;;;;10.88;8.52;;;23.70;93.90;;;;;;5106624;28;20043;-40
2021/09/07 11:20:12;;;;;;;11.60;9.40;;;23.70;93.90;;;;;;5101838;28;20034;-40
2021/09/07 11:22:38;;;;;;;12.23;9.93;;;23.80;93.80;;;;;;5081364;28;20460;-39
2021/09/07 11:25:06;;;;;;;12.63;10.10;;;23.70;93.50;;;;;;5087579;28;20012;-37
2021/09/07 11:27:53;;;;;;;12.40;9.40;;;23.80;93.70;;;;;;5080108;28;20025;-38
2021/09/07 11:30:26;;;;;;;8.40;7.47;;;23.90;93.40;;;;;;5085601;28;20020;-37
2021/09/07 11:33:13;;;;;;;10.05;8.57;;;23.90;93.50;;;;;;5098365;28;20118;-40
2021/09/07 11:35:53;;;;;;;9.73;8.73;;;23.90;93.60;;;;;;5108772;28;20035;-38
2021/09/07 11:38:31;;;;;;;11.85;10.25;;;23.90;93.40;;;;;;5093768;28;20080;-41
2021/09/07 11:41:01;;;;;;;11.40;9.45;;;23.90;93.30;;;;;;5084137;28;20131;-38
2021/09/07 11:43:27;;;;;;;10.65;9.15;;;23.90;93.30;;;;;;5083500;28;20021;-37
2021/09/07 11:46:10;;;;;;;13.68;10.45;;;24.00;93.30;;;;;;5103633;28;20031;-36
2021/09/07 11:48:38;;;;;;;10.98;9.57;;;24.00;93.20;;;;;;5113529;28;20022;-38
2021/09/07 11:51:05;;;;;;;11.45;8.45;;;24.10;93.30;;;;;;5111630;28;20024;-40
2021/09/07 11:53:30;;;;;;;12.23;9.07;;;24.10;93.20;;;;;;5093959;28;20039;-39
2021/09/07 11:55:57;;;;;;;10.60;9.35;;;24.10;93.10;;;;;;5091547;28;20913;-39
2021/09/07 11:58:39;;;;;;;13.00;10.05;;;24.10;93.20;;;;;;5114204;28;20019;-39
2021/09/07 12:01:15;;;;;;;11.05;9.50;;;24.10;93.00;;;;;;5113196;28;20027;-39
2021/09/07 12:04:02;;;;;;;9.30;7.93;;;24.10;93.00;;;;;;5112418;28;20035;-38
2021/09/07 12:06:32;;;;;;;12.02;10.05;;;24.10;93.00;;;;;;5113408;28;20098;-40
2021/09/07 12:09:11;;;;;;;13.73;11.15;;;24.20;92.70;;;;;;5113111;28;20030;-38
2021/09/07 12:11:37;;;;;;;11.05;9.88;;;24.20;92.60;;;;;;5112401;28;20027;-36
2021/09/07 12:14:09;;;;;;;15.23;10.93;;;24.20;92.60;;;;;;5112991;28;20035;-37
2021/09/07 12:16:56;;;;;;;12.80;10.52;;;24.30;92.60;;;;;;5106545;28;20031;-38
2021/09/07 12:19:33;;;;;;;14.07;10.43;;;24.30;92.40;;;;;;5112678;28;20043;-43
2021/09/07 12:22:20;;;;;;;13.88;10.45;;;24.40;92.40;;;;;;5112519;28;20049;-44
2021/09/07 12:25:14;;;;;;;11.45;9.88;;;24.40;92.40;;;;;;5112491;28;20016;-39
2021/09/07 12:27:46;;;;;;;15.07;12.55;;;24.50;92.40;;;;;;5112333;28;20355;-41
2021/09/07 12:30:22;;;;;;;14.00;11.73;;;24.60;92.20;;;;;;5079936;28;20491;-41
2021/09/07 12:32:51;;;;;;;12.15;10.73;;;24.60;92.10;;;;;;5098665;28;20492;-38
2021/09/07 12:35:27;;;;;;;15.85;11.93;;;24.70;92.10;;;;;;5112971;28;20114;-43
2021/09/07 12:37:53;;;;;;;12.48;10.15;;;24.80;91.90;;;;;;5111636;28;20038;-36
2021/09/07 12:40:18;;;;;;;11.27;10.13;;;24.90;91.80;;;;;;5113101;28;20024;-43